Time;durP1;ratioP1;P1;durP2;ratioP2;P2;SDS_P1;SDS_P2;PMS_P1;PMS_P2;Temp;Humidity;BMP_temperature;BMP_pressure;BME280_temperature;BME280_humidity;BME280_pressure;Samples;Min_cycle;Max_cycle;Signal;HPM_P1;HPM_P2
2022/11/27 00:01:40;;;;;;;110.10;55.35;;;8.90;99.90;;;;;;5032162;28;20038;-55
2022/11/27 00:04:08;;;;;;;110.13;56.40;;;8.90;99.90;;;;;;5031357;28;20036;-55
2022/11/27 00:06:35;;;;;;;114.75;57.15;;;8.70;99.90;;;;;;5033110;28;20136;-58
2022/11/27 00:09:05;;;;;;;111.72;56.38;;;8.60;99.90;;;;;;5027190;28;20600;-56
2022/11/27 00:11:32;;;;;;;99.90;55.78;;;8.60;99.90;;;;;;5033073;28;20393;-56
2022/11/27 00:13:58;;;;;;;110.00;57.17;;;8.70;99.90;;;;;;5031253;28;20033;-55
2022/11/27 00:16:25;;;;;;;103.22;55.17;;;8.70;99.90;;;;;;5030056;28;20057;-56
2022/11/27 00:18:51;;;;;;;110.18;57.08;;;8.80;99.90;;;;;;5010019;28;20103;-57
2022/11/27 00:21:23;;;;;;;128.55;70.45;;;8.80;99.90;;;;;;5046162;28;20108;-56
2022/11/27 00:23:54;;;;;;;135.55;69.90;;;8.80;99.90;;;;;;5028844;28;20075;-56
2022/11/27 00:26:20;;;;;;;126.15;69.50;;;8.80;99.90;;;;;;5009910;28;20049;-58
2022/11/27 00:28:46;;;;;;;124.60;66.95;;;8.80;99.90;;;;;;5031771;28;20496;-58
2022/11/27 00:31:13;;;;;;;115.13;59.90;;;8.90;99.90;;;;;;4990368;28;20073;-55
2022/11/27 00:33:39;;;;;;;114.13;60.72;;;9.00;99.90;;;;;;5029566;28;20042;-57
2022/11/27 00:36:06;;;;;;;110.07;59.05;;;9.00;99.90;;;;;;5028173;28;20025;-55
2022/11/27 00:38:32;;;;;;;112.57;57.83;;;9.00;99.90;;;;;;5031477;28;20405;-56
2022/11/27 00:41:05;;;;;;;116.30;59.72;;;9.00;99.90;;;;;;5026748;28;20040;-59
2022/11/27 00:43:30;;;;;;;107.88;55.92;;;8.80;99.90;;;;;;5028175;28;20049;-58
2022/11/27 00:45:56;;;;;;;106.63;56.78;;;8.80;99.90;;;;;;5029216;28;20401;-59
2022/11/27 00:48:22;;;;;;;100.47;59.75;;;8.90;99.90;;;;;;5015033;28;20053;-58
2022/11/27 00:50:47;;;;;;;114.55;65.82;;;9.00;99.90;;;;;;5016517;28;20052;-55
2022/11/27 00:53:13;;;;;;;113.57;65.03;;;9.00;99.90;;;;;;5016301;28;20143;-57
2022/11/27 00:55:39;;;;;;;113.63;64.80;;;9.00;99.90;;;;;;5028967;28;20037;-57
2022/11/27 00:58:04;;;;;;;118.78;64.57;;;8.90;99.90;;;;;;5032766;28;20056;-55
2022/11/27 01:00:30;;;;;;;103.90;60.67;;;8.90;99.90;;;;;;5045812;28;20131;-57
2022/11/27 01:02:56;;;;;;;117.50;62.33;;;8.90;99.90;;;;;;5045974;28;20045;-57
2022/11/27 01:05:22;;;;;;;105.85;57.47;;;8.70;99.90;;;;;;5030053;28;20539;-58
2022/11/27 01:07:47;;;;;;;108.57;58.85;;;8.40;99.90;;;;;;5031484;28;20037;-54
2022/11/27 01:10:13;;;;;;;103.55;56.83;;;8.50;99.90;;;;;;5031255;28;20033;-59
2022/11/27 01:12:39;;;;;;;104.38;56.15;;;8.70;99.90;;;;;;5028393;28;20099;-59
2022/11/27 01:15:05;;;;;;;121.07;59.90;;;8.70;99.90;;;;;;5021569;28;20058;-60
2022/11/27 01:17:31;;;;;;;104.65;55.92;;;8.80;99.90;;;;;;5047670;28;20037;-54
2022/11/27 01:19:56;;;;;;;113.05;61.88;;;8.80;99.90;;;;;;5030696;28;20497;-55
2022/11/27 01:22:22;;;;;;;112.03;59.00;;;8.90;99.90;;;;;;5028282;28;20030;-58
2022/11/27 01:24:48;;;;;;;103.70;60.28;;;9.00;99.90;;;;;;5023313;28;20088;-56
2022/11/27 01:27:13;;;;;;;111.75;62.75;;;9.00;99.90;;;;;;5027520;28;20053;-53
2022/11/27 01:29:39;;;;;;;105.70;60.78;;;9.10;99.90;;;;;;5027422;28;20029;-58
2022/11/27 01:32:05;;;;;;;107.82;59.72;;;9.10;99.90;;;;;;5024704;28;20111;-60
2022/11/27 01:34:31;;;;;;;111.22;62.58;;;9.10;99.90;;;;;;5026989;28;20026;-57
2022/11/27 01:36:56;;;;;;;109.65;62.80;;;9.10;99.90;;;;;;5033006;28;20132;-56
2022/11/27 01:39:23;;;;;;;112.75;59.38;;;9.10;99.90;;;;;;5032995;28;20538;-53
2022/11/27 01:41:49;;;;;;;104.65;60.17;;;9.10;99.90;;;;;;5032646;28;20381;-58
2022/11/27 01:44:24;;;;;;;106.63;59.33;;;9.10;99.90;;;;;;5034420;28;20037;-56
2022/11/27 01:47:13;;;;;;;118.38;63.97;;;9.10;99.90;;;;;;5028151;28;20065;-57
2022/11/27 01:49:44;;;;;;;124.85;68.40;;;9.10;99.90;;;;;;5034761;28;20397;-55
2022/11/27 01:52:27;;;;;;;118.67;68.30;;;9.10;99.90;;;;;;5034512;28;20037;-59
2022/11/27 01:54:55;;;;;;;;;;;8.80;99.90;;;;;;5031977;28;20274;-55
2022/11/27 01:57:29;;;;;;;126.00;65.30;;;8.70;99.90;;;;;;5031637;28;19917;-55
2022/11/27 01:59:57;;;;;;;121.10;68.82;;;8.90;99.90;;;;;;5034311;28;20029;-57
2022/11/27 02:02:23;;;;;;;129.45;70.05;;;9.00;99.90;;;;;;5051669;28;20124;-57
2022/11/27 02:04:49;;;;;;;122.28;68.68;;;9.10;99.90;;;;;;5031992;28;20132;-55
2022/11/27 02:07:15;;;;;;;119.60;69.25;;;9.10;99.90;;;;;;5034306;28;20037;-57
2022/11/27 02:09:41;;;;;;;125.55;68.72;;;9.10;99.90;;;;;;5036817;28;20056;-59
2022/11/27 02:12:37;;;;;;;128.70;72.07;;;9.10;99.90;;;;;;5028381;28;20381;-57
2022/11/27 02:15:27;;;;;;;129.27;66.43;;;8.70;99.90;;;;;;5028096;28;20456;-55
2022/11/27 02:18:05;;;;;;;137.23;68.85;;;8.60;99.90;;;;;;5029241;28;20037;-53
2022/11/27 02:20:48;;;;;;;137.88;67.60;;;8.30;99.90;;;;;;5032671;28;20025;-55
2022/11/27 02:23:38;;;;;;;140.63;68.72;;;8.10;99.90;;;;;;5032183;28;20115;-52
2022/11/27 02:26:50;;;;;;;138.90;67.70;;;8.00;99.90;;;;;;5028293;28;20052;-54
2022/11/27 02:29:20;;;;;;;142.75;68.47;;;7.90;99.90;;;;;;5029167;28;20122;-55
2022/11/27 02:31:51;;;;;;;141.18;68.88;;;7.80;99.90;;;;;;5022416;28;20056;-59
2022/11/27 02:34:40;;;;;;;143.55;67.97;;;7.60;99.90;;;;;;5011633;28;20041;-57
2022/11/27 02:37:20;;;;;;;141.00;69.15;;;7.60;99.90;;;;;;5013335;28;20497;-56
2022/11/27 02:40:08;;;;;;;143.23;68.30;;;7.50;99.90;;;;;;5013210;28;20026;-54
2022/11/27 02:43:17;;;;;;;147.20;71.00;;;7.40;99.90;;;;;;4993985;28;20034;-55
2022/11/27 02:45:44;;;;;;;144.80;66.30;;;;;;;;;;4931234;29;20372;-55
2022/11/27 02:48:12;;;;;;;137.35;66.95;;;;;;;;;;4932785;29;20043;-53
2022/11/27 02:50:40;;;;;;;146.40;69.60;;;7.50;99.90;;;;;;4931798;29;20067;-59
2022/11/27 02:53:14;;;;;;;140.77;68.15;;;7.10;99.90;;;;;;4905471;29;20501;-59
2022/11/27 02:55:42;;;;;;;137.52;67.57;;;7.10;99.90;;;;;;4933915;29;20046;-57
2022/11/27 02:58:13;;;;;;;138.75;69.03;;;7.00;99.90;;;;;;4901318;29;20044;-57
2022/11/27 03:00:42;;;;;;;142.35;65.43;;;7.10;99.90;;;;;;4934800;29;20036;-56
2022/11/27 03:03:11;;;;;;;131.23;60.78;;;7.10;99.90;;;;;;4925975;29;20103;-58
2022/11/27 03:05:42;;;;;;;135.95;66.60;;;7.00;99.90;;;;;;4938463;28;20601;-55
2022/11/27 03:08:21;;;;;;;140.20;62.47;;;7.00;99.90;;;;;;4954638;28;20039;-53
2022/11/27 03:11:25;;;;;;;139.77;64.95;;;7.00;99.90;;;;;;4954096;28;20035;-57
2022/11/27 03:13:55;;;;;;;140.52;67.95;;;6.80;99.90;;;;;;4954398;28;20137;-59
2022/11/27 03:16:23;;;;;;;147.57;69.30;;;;;;;;;;4954298;28;20063;-55
2022/11/27 03:19:13;;;;;;;133.20;67.43;;;8.20;99.90;;;;;;4962483;28;20038;-57
2022/11/27 03:21:49;;;;;;;132.38;68.25;;;8.00;99.90;;;;;;5033078;28;20064;-56
2022/11/27 03:24:15;;;;;;;142.13;66.57;;;8.20;99.90;;;;;;5034286;28;20531;-57
2022/11/27 03:26:42;;;;;;;127.47;63.67;;;8.30;99.90;;;;;;5031474;28;20196;-57
2022/11/27 03:29:27;;;;;;;124.35;60.97;;;8.40;99.90;;;;;;5047890;28;20048;-57
2022/11/27 03:31:55;;;;;;;124.13;61.50;;;8.50;99.90;;;;;;5044774;28;20504;-58
2022/11/27 03:34:21;;;;;;;130.70;59.70;;;8.50;99.90;;;;;;5031574;28;20021;-52
2022/11/27 03:36:47;;;;;;;133.25;64.22;;;8.60;99.90;;;;;;5029595;28;20029;-57
2022/11/27 03:39:13;;;;;;;137.88;69.03;;;8.60;99.90;;;;;;5032771;28;20038;-55
2022/11/27 03:42:02;;;;;;;137.32;65.18;;;8.40;99.90;;;;;;5031343;28;20036;-52
2022/11/27 03:44:48;;;;;;;134.38;64.13;;;8.40;99.90;;;;;;5032922;28;20036;-55
2022/11/27 03:47:23;;;;;;;121.95;62.13;;;8.40;99.90;;;;;;5029860;28;20069;-57
2022/11/27 03:50:20;;;;;;;119.88;60.22;;;8.50;99.90;;;;;;5024703;28;20029;-55
2022/11/27 03:53:03;;;;;;;126.82;62.90;;;8.60;99.90;;;;;;5029913;28;20033;-53
2022/11/27 03:55:53;;;;;;;125.63;60.30;;;8.60;99.90;;;;;;5032602;28;20057;-56
2022/11/27 03:58:36;;;;;;;124.78;60.13;;;8.30;99.90;;;;;;5032025;28;20451;-56
2022/11/27 04:01:06;;;;;;;130.75;62.75;;;8.20;99.90;;;;;;5029713;28;20029;-55
2022/11/27 04:03:32;;;;;;;128.60;60.70;;;8.00;99.90;;;;;;5032758;28;20417;-55
2022/11/27 04:05:58;;;;;;;123.82;59.67;;;8.00;99.90;;;;;;5032392;28;20132;-55
2022/11/27 04:08:24;;;;;;;136.38;63.75;;;7.70;99.90;;;;;;5031303;28;20033;-59
2022/11/27 04:10:50;;;;;;;124.55;62.30;;;7.70;99.90;;;;;;5028381;28;20037;-55
2022/11/27 04:13:16;;;;;;;113.38;57.53;;;7.90;99.90;;;;;;5033546;28;20136;-57
2022/11/27 04:15:41;;;;;;;116.70;58.22;;;8.10;99.90;;;;;;5044369;28;20050;-58
2022/11/27 04:18:07;;;;;;;115.97;60.17;;;8.30;99.90;;;;;;5029251;28;20029;-57
2022/11/27 04:20:33;;;;;;;119.68;59.80;;;8.30;99.90;;;;;;5033187;28;20087;-57
2022/11/27 04:22:59;;;;;;;121.50;58.70;;;8.20;99.90;;;;;;5030501;28;20026;-57
2022/11/27 04:25:25;;;;;;;111.15;60.65;;;8.10;99.90;;;;;;5031657;28;20025;-57
2022/11/27 04:27:51;;;;;;;118.05;57.58;;;8.30;99.90;;;;;;5030873;28;20033;-54
2022/11/27 04:30:17;;;;;;;127.07;62.38;;;8.20;99.90;;;;;;5031063;28;20025;-58
2022/11/27 04:32:43;;;;;;;130.75;66.63;;;8.10;99.90;;;;;;5026276;28;20083;-57
2022/11/27 04:35:09;;;;;;;125.75;62.08;;;8.10;99.90;;;;;;5026676;28;20025;-58
2022/11/27 04:37:35;;;;;;;119.80;60.75;;;8.10;99.90;;;;;;5032602;28;20461;-56
2022/11/27 04:40:01;;;;;;;122.55;60.70;;;8.00;99.90;;;;;;5031498;28;20033;-60
2022/11/27 04:42:27;;;;;;;125.68;60.17;;;7.80;99.90;;;;;;5027709;28;20564;-59
2022/11/27 04:44:53;;;;;;;123.72;60.90;;;7.80;99.90;;;;;;5029580;28;20029;-55
2022/11/27 04:47:18;;;;;;;113.30;59.65;;;7.90;99.90;;;;;;5028553;28;20045;-54
2022/11/27 04:49:44;;;;;;;115.45;60.15;;;8.20;99.90;;;;;;5027797;28;20040;-57
2022/11/27 04:52:10;;;;;;;118.20;60.58;;;8.30;99.90;;;;;;5012079;28;20041;-57
2022/11/27 04:54:36;;;;;;;117.40;56.13;;;8.50;99.90;;;;;;5032100;28;20033;-60
2022/11/27 04:57:02;;;;;;;122.70;59.70;;;8.50;99.90;;;;;;5029068;28;20033;-58
2022/11/27 04:59:28;;;;;;;120.53;61.30;;;8.40;99.90;;;;;;5029925;28;20108;-52
2022/11/27 05:01:54;;;;;;;121.07;59.53;;;8.20;99.90;;;;;;5031504;28;20105;-55
2022/11/27 05:04:21;;;;;;;111.78;57.78;;;8.30;99.90;;;;;;5026680;28;20042;-55
2022/11/27 05:06:47;;;;;;;117.88;60.03;;;8.40;99.90;;;;;;5001639;28;20038;-59
2022/11/27 05:09:13;;;;;;;106.60;53.40;;;8.40;99.90;;;;;;5027994;28;21123;-56
2022/11/27 05:11:38;;;;;;;114.28;57.40;;;8.30;99.90;;;;;;5027213;28;20240;-56
2022/11/27 05:14:21;;;;;;;120.00;56.97;;;8.00;99.90;;;;;;5025304;28;20049;-57
2022/11/27 05:16:50;;;;;;;118.32;58.75;;;7.90;99.90;;;;;;5029170;28;20170;-58
2022/11/27 05:19:18;;;;;;;113.82;56.05;;;8.00;99.90;;;;;;5026616;28;20033;-56
2022/11/27 05:21:45;;;;;;;107.47;56.90;;;8.30;99.90;;;;;;5019695;28;20037;-56
2022/11/27 05:24:12;;;;;;;110.88;61.28;;;8.40;99.90;;;;;;5027564;28;20476;-54
2022/11/27 05:26:38;;;;;;;113.40;58.47;;;8.50;99.90;;;;;;5026790;28;20116;-58
2022/11/27 05:29:05;;;;;;;112.93;60.65;;;8.60;99.90;;;;;;5019609;28;20096;-58
2022/11/27 05:31:31;;;;;;;114.93;61.78;;;8.70;99.90;;;;;;5027137;28;20018;-56
2022/11/27 05:33:57;;;;;;;122.95;66.43;;;8.70;99.90;;;;;;5028120;28;20479;-54
2022/11/27 05:36:22;;;;;;;109.07;63.90;;;8.90;99.90;;;;;;4991578;28;20106;-56
2022/11/27 05:38:48;;;;;;;115.20;61.38;;;8.80;99.90;;;;;;5024415;28;20038;-55
2022/11/27 05:41:14;;;;;;;110.43;60.90;;;8.80;99.90;;;;;;5025198;28;20092;-57
2022/11/27 05:43:40;;;;;;;106.75;57.22;;;8.90;99.90;;;;;;5029000;28;20103;-60
2022/11/27 05:46:07;;;;;;;111.82;58.70;;;9.00;99.90;;;;;;5028111;28;20401;-56
2022/11/27 05:48:34;;;;;;;107.22;59.03;;;8.90;99.90;;;;;;5029575;28;20013;-57
2022/11/27 05:51:00;;;;;;;139.18;73.20;;;8.90;99.90;;;;;;5023879;28;20052;-56
2022/11/27 05:53:26;;;;;;;127.82;70.05;;;9.00;99.90;;;;;;5029629;28;20514;-55
2022/11/27 05:55:52;;;;;;;123.13;66.00;;;9.00;99.90;;;;;;5030331;28;20511;-56
2022/11/27 05:58:18;;;;;;;138.73;78.32;;;9.00;99.90;;;;;;5028223;28;20105;-55
2022/11/27 06:00:44;;;;;;;132.07;71.85;;;9.00;99.90;;;;;;5030102;28;20029;-54
2022/11/27 06:03:10;;;;;;;134.20;69.78;;;9.10;99.90;;;;;;5028051;28;20038;-53
2022/11/27 06:05:40;;;;;;;121.18;67.35;;;9.10;99.90;;;;;;5028728;28;20096;-55
2022/11/27 06:08:05;;;;;;;124.70;74.22;;;9.10;99.90;;;;;;5024736;28;20037;-55
2022/11/27 06:10:32;;;;;;;116.00;65.70;;;9.10;99.90;;;;;;5044584;28;20117;-58
2022/11/27 06:12:58;;;;;;;112.13;63.58;;;9.10;99.90;;;;;;5030545;28;20092;-55
2022/11/27 06:15:24;;;;;;;109.90;64.10;;;9.20;99.90;;;;;;5031743;28;20057;-57
2022/11/27 06:17:50;;;;;;;111.13;64.68;;;9.20;99.90;;;;;;5030823;28;20033;-57
2022/11/27 06:20:16;;;;;;;102.95;62.78;;;9.20;99.90;;;;;;5030893;28;20030;-58
2022/11/27 06:22:42;;;;;;;122.75;67.85;;;9.10;99.90;;;;;;5030092;28;20034;-57
2022/11/27 06:25:08;;;;;;;115.05;63.38;;;9.20;99.90;;;;;;5021452;28;20036;-56
2022/11/27 06:27:34;;;;;;;119.18;66.72;;;9.20;99.90;;;;;;5031466;28;20040;-60
2022/11/27 06:30:00;;;;;;;113.53;64.93;;;9.20;99.90;;;;;;5030701;28;20087;-58
2022/11/27 06:32:26;;;;;;;112.82;69.03;;;9.20;99.90;;;;;;5034837;28;20473;-55
2022/11/27 06:34:52;;;;;;;104.55;63.92;;;9.30;99.90;;;;;;5033867;28;20057;-57
2022/11/27 06:37:17;;;;;;;115.97;66.80;;;9.10;99.90;;;;;;5030266;28;20484;-52
2022/11/27 06:39:43;;;;;;;115.20;62.90;;;9.20;99.90;;;;;;5030222;28;20091;-57
2022/11/27 06:42:09;;;;;;;105.78;63.42;;;9.20;99.90;;;;;;5048692;28;20041;-60
2022/11/27 06:44:35;;;;;;;112.55;68.10;;;9.20;99.90;;;;;;5031705;28;20033;-57
2022/11/27 06:47:01;;;;;;;110.43;65.35;;;9.30;99.90;;;;;;5033389;28;20072;-55
2022/11/27 06:49:26;;;;;;;113.57;66.63;;;9.30;99.90;;;;;;5034216;28;20037;-58
2022/11/27 06:51:52;;;;;;;99.40;62.00;;;9.30;99.90;;;;;;5030907;28;20028;-55
2022/11/27 06:54:18;;;;;;;108.72;65.72;;;9.20;99.90;;;;;;5032378;28;20108;-55
2022/11/27 06:56:43;;;;;;;112.18;66.53;;;9.10;99.90;;;;;;5033477;28;20022;-55
2022/11/27 06:59:15;;;;;;;109.18;65.07;;;9.10;99.90;;;;;;5028988;28;20030;-59
2022/11/27 07:01:41;;;;;;;99.93;64.18;;;9.30;99.90;;;;;;5035271;28;20045;-54
2022/11/27 07:04:12;;;;;;;111.43;66.18;;;9.20;99.90;;;;;;5031006;28;20453;-56
2022/11/27 07:06:38;;;;;;;123.80;77.75;;;9.20;99.90;;;;;;5029556;28;20056;-55
2022/11/27 07:09:05;;;;;;;143.80;92.13;;;9.20;99.90;;;;;;5033569;28;20018;-57
2022/11/27 07:11:31;;;;;;;122.72;71.45;;;9.30;99.90;;;;;;5047349;28;20037;-60
2022/11/27 07:13:59;;;;;;;127.45;72.18;;;9.40;99.90;;;;;;5027623;28;20026;-54
2022/11/27 07:16:27;;;;;;;136.48;80.40;;;9.40;99.90;;;;;;5032007;28;20050;-56
2022/11/27 07:18:56;;;;;;;132.77;76.13;;;9.50;99.90;;;;;;5033883;28;20052;-61
2022/11/27 07:21:22;;;;;;;134.35;71.72;;;9.50;99.90;;;;;;5034934;28;20030;-61
2022/11/27 07:23:48;;;;;;;139.50;76.10;;;9.60;99.90;;;;;;5031930;28;20517;-57
2022/11/27 07:26:22;;;;;;;142.90;77.82;;;9.80;99.90;;;;;;5030659;28;20095;-53
2022/11/27 07:28:49;;;;;;;145.52;75.80;;;9.90;99.90;;;;;;5023783;28;20490;-55
2022/11/27 07:31:17;;;;;;;163.98;79.78;;;9.80;99.90;;;;;;5030583;28;20138;-57
2022/11/27 07:33:43;;;;;;;148.48;78.95;;;9.80;99.90;;;;;;5006624;28;20117;-58
2022/11/27 07:36:21;;;;;;;139.90;76.60;;;9.90;99.90;;;;;;5030126;28;20109;-55
2022/11/27 07:38:47;;;;;;;151.85;82.90;;;9.90;99.90;;;;;;5017202;28;20037;-55
2022/11/27 07:41:14;;;;;;;163.90;85.47;;;9.80;99.90;;;;;;5025656;28;20113;-56
2022/11/27 07:43:41;;;;;;;134.30;75.60;;;9.90;99.90;;;;;;5030544;28;20043;-54
2022/11/27 07:46:14;;;;;;;130.95;70.50;;;9.90;99.90;;;;;;5029325;28;20029;-54
2022/11/27 07:48:39;;;;;;;137.18;70.63;;;9.90;99.90;;;;;;5020696;28;20045;-57
2022/11/27 07:51:06;;;;;;;129.68;65.07;;;;;;;;;;5030973;28;20421;-55
2022/11/27 07:53:35;;;;;;;128.25;65.43;;;10.00;99.90;;;;;;5030467;28;20603;-58
2022/11/27 07:56:01;;;;;;;132.48;70.00;;;10.00;99.90;;;;;;5026316;28;20030;-58
2022/11/27 07:58:27;;;;;;;125.05;64.95;;;10.00;99.90;;;;;;5032399;28;20025;-59
2022/11/27 08:00:54;;;;;;;375.70;209.43;;;10.10;99.90;;;;;;5032574;28;20049;-60
2022/11/27 08:03:20;;;;;;;287.40;160.68;;;10.10;99.90;;;;;;5031757;28;20131;-56
2022/11/27 08:05:45;;;;;;;131.35;68.95;;;10.10;99.90;;;;;;5032727;28;20124;-58
2022/11/27 08:08:11;;;;;;;138.70;72.22;;;10.20;99.90;;;;;;5034367;28;20037;-54
2022/11/27 08:10:37;;;;;;;266.15;171.20;;;10.30;99.90;;;;;;5032464;28;20029;-58
2022/11/27 08:13:04;;;;;;;277.88;186.60;;;10.30;99.90;;;;;;5031490;28;20033;-53
2022/11/27 08:15:29;;;;;;;186.23;99.72;;;10.30;99.90;;;;;;5028449;28;20124;-58
2022/11/27 08:17:55;;;;;;;157.35;82.65;;;10.20;99.90;;;;;;5027629;28;20116;-54
2022/11/27 08:20:21;;;;;;;138.73;71.90;;;10.00;99.90;;;;;;5030524;28;20033;-55
2022/11/27 08:22:47;;;;;;;118.82;63.03;;;9.80;99.90;;;;;;5029941;28;20029;-56
2022/11/27 08:25:13;;;;;;;126.18;62.42;;;9.80;99.90;;;;;;5027230;28;20025;-58
2022/11/27 08:27:39;;;;;;;141.20;70.78;;;9.80;99.90;;;;;;5032477;28;20095;-59
2022/11/27 08:30:05;;;;;;;135.90;70.55;;;9.90;99.90;;;;;;5028646;28;20033;-57
2022/11/27 08:32:31;;;;;;;143.80;69.63;;;9.80;99.90;;;;;;5041261;28;20045;-56
2022/11/27 08:34:57;;;;;;;156.07;74.45;;;9.50;99.90;;;;;;5021285;28;20041;-59
2022/11/27 08:37:23;;;;;;;152.13;74.80;;;9.40;99.90;;;;;;5027325;28;20030;-55
2022/11/27 08:39:48;;;;;;;145.57;69.82;;;9.40;99.90;;;;;;5031697;28;20049;-58
2022/11/27 08:42:15;;;;;;;161.05;79.03;;;9.30;99.90;;;;;;5023963;28;20066;-62
2022/11/27 08:44:40;;;;;;;114.35;57.55;;;9.30;99.90;;;;;;5021994;28;20033;-57
2022/11/27 08:47:06;;;;;;;116.70;65.63;;;9.00;99.90;;;;;;5035926;28;20508;-55
2022/11/27 08:49:32;;;;;;;133.73;70.15;;;9.10;99.90;;;;;;5029195;28;20040;-53
2022/11/27 08:51:58;;;;;;;127.05;67.00;;;9.30;99.90;;;;;;5032818;28;20466;-57
2022/11/27 08:54:23;;;;;;;125.28;62.70;;;9.40;99.90;;;;;;5031142;28;20444;-54
2022/11/27 08:56:51;;;;;;;121.07;61.47;;;9.30;99.90;;;;;;5030447;28;20433;-56
2022/11/27 08:59:17;;;;;;;111.95;57.83;;;9.10;99.90;;;;;;5029699;28;20519;-60
2022/11/27 09:01:43;;;;;;;93.85;50.95;;;8.90;99.90;;;;;;5032033;28;20029;-56
2022/11/27 09:04:09;;;;;;;79.38;46.10;;;8.90;99.90;;;;;;5029702;28;20032;-52
2022/11/27 09:06:35;;;;;;;63.00;36.42;;;9.00;99.90;;;;;;5031631;28;20038;-53
2022/11/27 09:09:03;;;;;;;67.35;38.67;;;9.20;99.90;;;;;;5046973;28;20496;-54
2022/11/27 09:11:30;;;;;;;66.22;37.30;;;9.30;99.90;;;;;;5028695;28;20111;-57
2022/11/27 09:13:58;;;;;;;64.65;36.40;;;9.40;99.90;;;;;;5029787;28;20037;-53
2022/11/27 09:20:13;;;;;;;91.50;56.38;;;9.60;99.90;;;;;;5025129;28;20567;-52
2022/11/27 09:22:39;;;;;;;71.07;41.83;;;9.70;99.90;;;;;;5028452;28;20038;-53
2022/11/27 09:25:05;;;;;;;72.35;42.83;;;9.80;99.90;;;;;;5027533;28;20036;-54
2022/11/27 09:27:30;;;;;;;67.95;40.92;;;9.90;99.90;;;;;;5032490;28;20076;-55
2022/11/27 09:29:56;;;;;;;75.28;41.67;;;9.80;99.90;;;;;;5029877;28;20136;-54
2022/11/27 09:32:22;;;;;;;75.32;43.03;;;9.80;99.90;;;;;;5029176;28;20037;-53
2022/11/27 09:34:50;;;;;;;76.22;41.80;;;9.80;99.90;;;;;;5026523;28;20385;-58
2022/11/27 09:37:16;;;;;;;80.95;45.20;;;9.60;99.90;;;;;;5029091;28;20025;-57
2022/11/27 09:39:42;;;;;;;90.10;48.47;;;9.40;99.90;;;;;;5031097;28;20048;-57
2022/11/27 09:42:18;;;;;;;82.15;45.00;;;9.50;99.90;;;;;;5027828;28;20120;-55
2022/11/27 09:44:56;;;;;;;90.13;47.92;;;9.40;99.90;;;;;;5025972;28;20038;-55
2022/11/27 09:47:42;;;;;;;93.88;48.63;;;9.40;99.90;;;;;;5027450;28;20457;-53
2022/11/27 09:50:20;;;;;;;92.15;47.83;;;9.40;99.90;;;;;;5016732;28;20466;-56
2022/11/27 09:52:52;;;;;;;89.55;46.53;;;9.40;99.90;;;;;;5028729;28;20088;-54
2022/11/27 09:55:42;;;;;;;90.72;47.25;;;9.30;99.90;;;;;;5028140;28;20022;-54
2022/11/27 09:58:14;;;;;;;93.15;48.95;;;9.20;99.90;;;;;;5031826;28;20041;-54
2022/11/27 10:00:39;;;;;;;;;;;9.30;99.90;;;;;;5035674;28;20061;-54
2022/11/27 10:03:19;;;;;;;88.47;47.63;;;9.40;99.90;;;;;;5032363;28;19971;-52
2022/11/27 10:05:51;;;;;;;83.65;42.75;;;9.60;99.90;;;;;;5064053;28;20096;-54
2022/11/27 10:08:28;;;;;;;78.10;44.72;;;9.80;99.90;;;;;;5036550;28;20065;-55
2022/11/27 10:11:19;;;;;;;79.07;42.65;;;9.80;99.90;;;;;;5032496;28;20092;-57
2022/11/27 10:13:58;;;;;;;75.93;43.47;;;9.80;99.90;;;;;;5034148;28;20099;-53
2022/11/27 10:16:32;;;;;;;80.57;45.53;;;9.80;99.90;;;;;;5030732;28;20049;-52
2022/11/27 10:19:12;;;;;;;85.18;45.40;;;9.60;99.90;;;;;;5032084;28;20126;-53
2022/11/27 10:21:58;;;;;;;95.20;47.75;;;9.70;99.90;;;;;;5030483;28;20108;-55
2022/11/27 10:24:42;;;;;;;96.25;49.00;;;9.60;99.90;;;;;;5033731;28;20033;-53
2022/11/27 10:27:27;;;;;;;95.45;48.17;;;9.60;99.90;;;;;;5030545;28;20064;-56
2022/11/27 10:29:54;;;;;;;89.78;48.50;;;9.50;99.90;;;;;;5035157;28;20132;-54
2022/11/27 10:32:24;;;;;;;95.38;50.83;;;9.60;99.90;;;;;;5025042;28;20521;-52
2022/11/27 10:35:03;;;;;;;88.63;49.78;;;9.70;99.90;;;;;;5030507;28;20042;-51
2022/11/27 10:37:42;;;;;;;101.40;51.20;;;9.70;99.90;;;;;;5032400;28;20031;-57
2022/11/27 10:40:11;;;;;;;102.22;52.22;;;9.60;99.90;;;;;;5032733;28;20521;-53
2022/11/27 10:43:11;;;;;;;101.50;52.30;;;9.50;99.90;;;;;;5033489;28;20053;-55
2022/11/27 10:46:01;;;;;;;92.65;50.35;;;9.10;99.90;;;;;;5032989;28;20489;-54
2022/11/27 10:48:28;;;;;;;86.78;46.45;;;8.90;99.90;;;;;;5032618;28;20500;-52
2022/11/27 10:50:55;;;;;;;101.75;58.40;;;8.90;99.90;;;;;;5040679;28;20148;-55
2022/11/27 10:53:34;;;;;;;98.18;49.80;;;9.10;99.90;;;;;;5033629;28;20033;-54
2022/11/27 10:56:14;;;;;;;115.32;59.08;;;9.30;99.90;;;;;;5033996;28;20567;-55
2022/11/27 10:59:01;;;;;;;93.68;48.45;;;9.50;99.90;;;;;;5030828;28;20041;-53
2022/11/27 11:01:41;;;;;;;111.50;52.45;;;9.30;99.90;;;;;;5041705;28;20021;-56
2022/11/27 11:04:09;;;;;;;103.53;52.28;;;9.20;99.90;;;;;;4976704;28;20046;-55
2022/11/27 11:06:47;;;;;;;102.80;53.78;;;9.30;99.90;;;;;;4981690;28;20046;-54
2022/11/27 11:09:22;;;;;;;102.03;51.83;;;9.50;99.90;;;;;;4981664;28;20145;-52
2022/11/27 11:11:48;;;;;;;102.18;53.08;;;9.60;99.90;;;;;;4977455;28;20071;-55
2022/11/27 11:14:25;;;;;;;113.70;58.15;;;9.50;99.90;;;;;;4956508;28;20051;-55
2022/11/27 11:16:53;;;;;;;108.20;57.15;;;9.50;99.90;;;;;;4976401;28;20521;-53
2022/11/27 11:19:24;;;;;;;170.38;98.07;;;9.50;99.90;;;;;;4983385;28;20034;-56
2022/11/27 11:21:50;;;;;;;161.07;93.10;;;9.60;99.90;;;;;;4993141;28;20117;-53
2022/11/27 11:24:32;;;;;;;88.78;48.58;;;9.50;99.90;;;;;;4993582;28;20173;-58
2022/11/27 11:27:05;;;;;;;108.90;60.22;;;9.70;99.90;;;;;;4992855;28;20042;-58
2022/11/27 11:29:56;;;;;;;83.45;47.30;;;9.60;99.90;;;;;;4992362;28;20116;-51
2022/11/27 11:32:28;;;;;;;74.45;41.85;;;9.60;99.90;;;;;;4992705;28;20117;-55
2022/11/27 11:35:09;;;;;;;84.07;44.20;;;9.90;99.90;;;;;;5014708;28;20106;-56
2022/11/27 11:37:38;;;;;;;112.70;57.67;;;9.90;99.90;;;;;;5050129;28;20033;-54
2022/11/27 11:40:12;;;;;;;94.47;50.28;;;9.50;99.90;;;;;;5032650;28;20595;-55
2022/11/27 11:42:49;;;;;;;84.97;45.72;;;9.50;99.90;;;;;;5046403;28;20034;-56
2022/11/27 11:45:19;;;;;;;80.78;45.30;;;9.40;99.90;;;;;;5044325;28;20207;-56
2022/11/27 11:47:48;;;;;;;78.43;43.95;;;9.60;99.90;;;;;;5046030;28;20099;-56
2022/11/27 11:50:31;;;;;;;69.63;38.97;;;9.50;99.90;;;;;;5048402;28;20461;-53
2022/11/27 11:53:33;;;;;;;81.80;45.22;;;9.30;99.90;;;;;;5048530;28;20086;-53
2022/11/27 11:56:26;;;;;;;86.55;45.58;;;9.40;99.90;;;;;;5051031;28;20418;-53
2022/11/27 11:58:59;;;;;;;83.40;45.53;;;9.20;99.90;;;;;;5043545;28;20036;-55
2022/11/27 12:02:03;;;;;;;74.65;40.75;;;9.20;99.90;;;;;;5050038;28;20042;-55
2022/11/27 12:04:43;;;;;;;87.40;49.50;;;9.10;99.90;;;;;;5040394;28;20079;-54
2022/11/27 12:07:45;;;;;;;88.03;44.28;;;9.10;99.90;;;;;;5019271;28;20037;-54
2022/11/27 12:10:29;;;;;;;79.03;43.05;;;9.10;99.90;;;;;;5027435;28;20503;-55
2022/11/27 12:13:19;;;;;;;81.00;45.75;;;9.30;99.90;;;;;;5030123;28;20036;-54
2022/11/27 12:16:06;;;;;;;89.45;47.47;;;9.30;99.90;;;;;;5022806;28;20042;-55
2022/11/27 12:18:59;;;;;;;86.35;44.85;;;9.20;99.90;;;;;;5030477;28;20032;-55
2022/11/27 12:21:44;;;;;;;86.65;47.65;;;9.20;99.90;;;;;;5030643;28;20037;-56
2022/11/27 12:24:29;;;;;;;79.88;43.58;;;;;;;;;;5030270;28;20493;-52
2022/11/27 12:27:16;;;;;;;80.30;43.47;;;9.20;99.90;;;;;;5028954;28;20477;-54
2022/11/27 12:29:45;;;;;;;86.15;50.13;;;9.30;99.90;;;;;;5029799;28;20033;-54
2022/11/27 12:32:30;;;;;;;113.45;65.20;;;9.40;99.90;;;;;;5029559;28;20056;-53
2022/11/27 12:50:14;;;;;;;130.93;70.95;;;8.90;99.90;;;;;;5065986;28;20122;-52
2022/11/27 12:52:42;;;;;;;95.32;48.75;;;;;;;;;;5068177;28;20480;-51
2022/11/27 12:55:29;;;;;;;103.35;50.95;;;;;;;;;;5069253;28;20028;-52
2022/11/27 12:58:21;;;;;;;96.35;52.85;;;;;;;;;;5045529;28;20094;-55
2022/11/27 13:00:47;;;;;;;;;;;;;;;;;;5062368;28;20036;-52
2022/11/27 13:03:21;;;;;;;106.93;65.93;;;9.20;99.90;;;;;;5046195;28;20425;-52
2022/11/27 13:05:56;;;;;;;97.60;52.40;;;9.30;99.90;;;;;;4997297;28;20044;-51
2022/11/27 13:08:28;;;;;;;82.75;42.97;;;9.30;99.90;;;;;;5059114;28;20079;-53
2022/11/27 13:11:10;;;;;;;75.70;39.08;;;9.20;99.90;;;;;;5066479;28;20446;-53
2022/11/27 13:14:03;;;;;;;78.18;39.55;;;9.20;99.90;;;;;;5067738;28;20033;-53